Evarts, Kentucky
Current Conditions -  °F | °C
As of 3:55 PM on Saturday 25 Oct 2014 (Local Time) from KI35 Reporting Station
Overcast Overcast  
Wind Chill: 64°   Ceiling: 3100
Heat Index: 64°   Visibility: 10mi
Dew Point: 45°   Wind: 5mph
Humidity: 49%   Direction: 270°W
Pressure: 30.02"   Gusts: NA
Location:  36.87°N, 83.19°W
Report Text: KI35 251955Z AUTO 27004KT 10SM OVC031 18/07 A3002 RMK AO1
Loading
Personal Weather Stations






























Interactive Weather Map
Tropical Storm Tracking
New forecast layout! Learn more

10-Day Weather Forecast

Advertisements
Track Severe Weather on mobile